Time;durP1;ratioP1;P1;durP2;ratioP2;P2;SDS_P1;SDS_P2;PMS_P1;PMS_P2;Temp;Humidity;BMP_temperature;BMP_pressure;BME280_temperature;BME280_humidity;BME280_pressure;Samples;Min_cycle;Max_cycle;Signal;HPM_P1;HPM_P2
2024/04/16 00:00:50;;;;;;;10.63;1.85;;;;;;;18.69;37.43;98644.94;5418256;26;20065;-45
2024/04/16 00:03:16;;;;;;;2.75;1.00;;;;;;;18.47;37.08;98641.56;5418278;26;20015;-45
2024/04/16 00:05:42;;;;;;;8.30;1.98;;;;;;;18.10;38.12;98637.75;5416555;26;20015;-46
2024/04/16 00:08:07;;;;;;;8.07;4.20;;;;;;;18.22;38.60;98639.47;5418211;26;20014;-46
2024/04/16 00:10:33;;;;;;;5.38;1.75;;;;;;;18.44;38.64;98634.91;5416219;26;20015;-46
2024/04/16 00:12:59;;;;;;;6.32;1.52;;;;;;;18.62;38.12;98635.59;5418206;26;20049;-46
2024/04/16 00:15:24;;;;;;;9.13;1.60;;;;;;;18.69;37.71;98629.00;5416297;26;20015;-46
2024/04/16 00:17:50;;;;;;;10.75;2.92;;;;;;;18.83;37.34;98624.06;5418160;26;19999;-46
2024/04/16 00:20:16;;;;;;;5.22;1.48;;;;;;;18.96;36.88;98628.94;5417981;26;20000;-46
2024/04/16 00:22:42;;;;;;;5.57;2.10;;;;;;;19.02;36.92;98629.78;5386656;26;20000;-46
2024/04/16 00:25:08;;;;;;;10.40;1.48;;;;;;;19.00;36.65;98625.78;5416290;26;20319;-47
2024/04/16 00:27:34;;;;;;;3.28;1.05;;;;;;;19.10;36.40;98629.28;5418142;26;20417;-46
2024/04/16 00:30:00;;;;;;;2.60;1.30;;;;;;;19.17;36.49;98621.06;5418153;26;19995;-46
2024/04/16 00:32:26;;;;;;;2.70;1.63;;;;;;;19.11;35.86;98625.56;5416086;26;20004;-46
2024/04/16 00:34:52;;;;;;;2.60;1.17;;;;;;;18.90;36.05;98619.31;5415791;26;20491;-46
2024/04/16 00:37:19;;;;;;;5.72;4.93;;;;;;;18.90;36.45;98614.00;5418075;26;20018;-46
2024/04/16 00:39:47;;;;;;;6.45;3.35;;;;;;;18.78;36.13;98608.06;5416021;26;20369;-46
2024/04/16 00:42:12;;;;;;;6.53;3.20;;;;;;;18.69;36.18;98606.91;5417721;26;20010;-46
2024/04/16 00:44:38;;;;;;;3.78;2.13;;;;;;;18.67;36.54;98607.19;5415922;26;20035;-46
2024/04/16 00:47:04;;;;;;;8.50;6.63;;;;;;;18.69;36.82;98602.41;5417528;26;20351;-46
2024/04/16 00:49:31;;;;;;;6.05;3.25;;;;;;;18.73;37.41;98594.72;5386313;26;20076;-47
2024/04/16 00:51:59;;;;;;;10.32;6.45;;;;;;;18.81;37.08;98594.25;5417450;26;20018;-46
2024/04/16 00:54:26;;;;;;;5.57;1.30;;;;;;;18.81;36.58;98594.25;5415802;26;20357;-46
2024/04/16 00:56:55;;;;;;;3.38;1.98;;;;;;;18.69;36.02;98586.47;5415829;26;20014;-46
2024/04/16 00:59:26;;;;;;;4.00;1.92;;;;;;;18.36;36.29;98590.97;5415698;26;20018;-46
2024/04/16 01:01:55;;;;;;;6.10;1.23;;;;;;;18.12;36.44;98584.41;5415704;26;20333;-46
2024/04/16 01:04:22;;;;;;;5.80;2.47;;;;;;;17.94;37.18;98577.59;5417360;26;20092;-46
2024/04/16 01:06:50;;;;;;;5.72;1.05;;;;;;;17.84;37.41;98572.97;5417412;26;20009;-46
2024/04/16 01:09:17;;;;;;;1.85;0.82;;;;;;;17.81;37.68;98570.00;5417317;26;20007;-46
2024/04/16 01:11:43;;;;;;;2.75;2.15;;;;;;;17.83;38.13;98558.13;5415533;26;20003;-46
2024/04/16 01:14:09;;;;;;;6.65;2.08;;;;;;;17.86;37.86;98564.78;5415582;26;19999;-46
2024/04/16 01:16:34;;;;;;;6.15;1.02;;;;;;;17.74;38.05;98562.22;5417263;26;20012;-46
2024/04/16 01:19:04;;;;;;;1.38;0.70;;;;;;;17.65;38.00;98571.72;5415493;26;19999;-46
2024/04/16 01:21:29;;;;;;;680.67;575.90;;;;;;;17.56;38.20;98568.69;5417180;26;20068;-46
2024/04/16 01:23:55;;;;;;;108.45;88.65;;;;;;;17.47;38.66;98570.19;5417121;26;20016;-46
2024/04/16 01:26:21;;;;;;;85.32;75.55;;;;;;;17.37;38.97;98570.84;5416935;26;20011;-46
2024/04/16 01:28:47;;;;;;;53.28;44.70;;;;;;;17.21;39.22;98564.56;5416984;26;20412;-46
2024/04/16 01:31:14;;;;;;;95.65;71.30;;;;;;;17.14;39.27;98566.59;5415130;26;20018;-46
2024/04/16 01:33:40;;;;;;;18.63;12.80;;;;;;;17.10;39.98;98563.66;5416994;26;20003;-46
2024/04/16 01:36:06;;;;;;;6.72;4.32;;;;;;;17.29;39.77;98563.34;5416631;26;20003;-46
2024/04/16 01:38:32;;;;;;;4.05;2.40;;;;;;;17.41;39.32;98556.06;5385540;26;20003;-46
2024/04/16 01:40:58;;;;;;;3.50;1.35;;;;;;;17.30;39.16;98543.72;5416878;26;19999;-46
2024/04/16 01:43:23;;;;;;;9.48;6.75;;;;;;;17.16;39.98;98553.88;5415004;26;20441;-46
2024/04/16 01:45:49;;;;;;;5.95;2.80;;;;;;;17.05;40.62;98552.16;5416814;26;20415;-46
2024/04/16 01:48:15;;;;;;;3.00;1.75;;;;;;;16.96;40.79;98543.81;5415067;26;20000;-46
2024/04/16 01:50:40;;;;;;;2.58;2.10;;;;;;;16.86;40.46;98544.50;5414896;26;20031;-46
2024/04/16 01:53:07;;;;;;;3.15;1.77;;;;;;;16.76;41.67;98549.59;5385288;26;20018;-46
2024/04/16 01:55:36;;;;;;;7.45;3.38;;;;;;;16.87;42.08;98546.09;5416230;26;20003;-46
2024/04/16 01:58:05;;;;;;;11.63;5.53;;;;;;;17.05;41.38;98545.00;5416575;26;20132;-46
2024/04/16 02:00:31;;;;;;;5.40;4.85;;;;;;;17.03;40.66;98544.44;5385228;26;20468;-46
2024/04/16 02:02:59;;;;;;;7.40;3.35;;;;;;;16.94;40.71;98541.44;5416548;26;20000;-46
2024/04/16 02:05:26;;;;;;;42.58;37.17;;;;;;;16.91;40.78;98541.91;5414711;26;20469;-46
2024/04/16 02:07:51;;;;;;;2.47;1.15;;;;;;;16.96;40.60;98539.34;5414706;26;20544;-46
2024/04/16 02:10:17;;;;;;;5.60;1.90;;;;;;;16.91;40.89;98541.91;5414738;26;20008;-46
2024/04/16 02:12:42;;;;;;;3.83;0.95;;;;;;;17.08;40.87;98538.41;5414505;26;20322;-46
2024/04/16 02:15:08;;;;;;;2.95;1.10;;;;;;;17.27;40.60;98525.66;5416322;26;20014;-46
2024/04/16 02:17:34;;;;;;;2.78;1.20;;;;;;;17.42;40.32;98536.41;5416349;26;20008;-46
2024/04/16 02:19:59;;;;;;;7.03;4.43;;;;;;;17.58;39.91;98535.53;5416132;26;20015;-46
2024/04/16 02:22:25;;;;;;;3.70;1.17;;;;;;;17.74;39.54;98533.03;5414642;26;20021;-46
2024/04/16 02:24:51;;;;;;;2.60;1.20;;;;;;;17.77;39.68;98540.50;5416265;26;20003;-46
2024/04/16 02:27:16;;;;;;;4.75;0.73;;;;;;;17.74;39.12;98531.19;5415955;26;20003;-46
2024/04/16 02:29:42;;;;;;;6.28;1.58;;;;;;;17.76;39.44;98531.72;5416295;26;20037;-46
2024/04/16 02:32:08;;;;;;;3.42;0.90;;;;;;;17.83;39.43;98533.38;5384555;26;20077;-45
2024/04/16 02:34:33;;;;;;;10.52;1.42;;;;;;;18.04;38.14;98553.00;5415941;26;20346;-45
2024/04/16 02:36:59;;;;;;;31.00;2.25;;;;;;;17.62;41.11;98561.56;5415611;26;20015;-45
2024/04/16 02:39:25;;;;;;;9.00;1.67;;;;;;;16.75;43.77;98599.16;5414148;26;20008;-44
2024/04/16 02:41:52;;;;;;;15.18;1.38;;;;;;;15.90;45.03;98616.84;5414056;26;20515;-44
2024/04/16 02:44:18;;;;;;;6.45;1.10;;;;;;;15.37;46.68;98639.03;5415804;26;20015;-44
2024/04/16 02:46:44;;;;;;;7.72;1.75;;;;;;;15.29;47.64;98623.50;5415918;26;20014;-44
2024/04/16 02:49:10;;;;;;;4.00;2.00;;;;;;;15.25;47.04;98625.84;5415769;26;20514;-45
2024/04/16 02:51:35;;;;;;;5.07;1.35;;;;;;;15.01;46.80;98630.34;5415671;26;20014;-45
2024/04/16 02:54:01;;;;;;;2.53;1.13;;;;;;;14.97;47.35;98629.19;5415623;26;19999;-45
2024/04/16 02:56:27;;;;;;;4.65;1.10;;;;;;;15.00;46.35;98638.50;5413837;26;20341;-45
2024/04/16 02:58:53;;;;;;;6.40;1.20;;;;;;;14.85;45.98;98626.53;5413913;26;20003;-44
2024/04/16 03:01:18;;;;;;;12.95;1.48;;;;;;;14.65;45.48;98634.81;5413737;26;20073;-45
2024/04/16 03:03:44;;;;;;;8.80;1.63;;;;;;;14.55;46.29;98630.03;5415612;26;20011;-45
2024/04/16 03:06:09;;;;;;;6.40;1.42;;;;;;;14.54;46.70;98630.25;5416660;26;20014;-45
2024/04/16 03:08:35;;;;;;;46.17;41.40;;;;;;;14.59;45.34;98625.16;5417276;26;20057;-44
2024/04/16 03:11:02;;;;;;;10.45;4.55;;;;;;;14.46;47.76;98638.50;5417356;26;19999;-45
2024/04/16 03:13:27;;;;;;;8.85;1.58;;;;;;;14.40;48.11;98634.94;5417245;26;20013;-45
2024/04/16 03:15:53;;;;;;;7.70;2.00;;;;;;;14.36;47.92;98639.84;5417091;26;20446;-44
2024/04/16 03:18:19;;;;;;;7.18;1.55;;;;;;;14.39;47.13;98647.34;5418945;26;20013;-45
2024/04/16 03:20:46;;;;;;;5.13;1.40;;;;;;;14.50;46.67;98642.31;5418759;26;20008;-45
2024/04/16 03:23:11;;;;;;;5.00;1.48;;;;;;;14.77;45.55;98642.75;5418773;26;20011;-45
2024/04/16 03:25:44;;;;;;;5.50;1.50;;;;;;;14.81;45.46;98646.53;5418998;26;19999;-45
2024/04/16 03:28:10;;;;;;;10.60;1.63;;;;;;;14.75;45.13;98652.72;5418719;26;20000;-45
2024/04/16 03:30:36;;;;;;;7.70;1.40;;;;;;;14.73;45.12;98652.16;5418662;26;20381;-45
2024/04/16 03:33:02;;;;;;;8.05;1.73;;;;;;;14.78;45.19;98652.25;5387473;26;20007;-45
2024/04/16 03:35:28;;;;;;;8.70;2.00;;;;;;;14.83;46.25;98660.31;5418502;26;20011;-45
2024/04/16 03:37:53;;;;;;;11.43;1.98;;;;;;;14.77;50.33;98662.03;5417221;26;20003;-45
2024/04/16 03:40:19;;;;;;;8.98;2.95;;;;;;;14.48;52.41;98660.22;5416986;26;20003;-45
2024/04/16 03:42:45;;;;;;;11.07;2.10;;;;;;;14.14;55.31;98665.94;5417150;26;20329;-45
2024/04/16 03:45:10;;;;;;;8.73;2.22;;;;;;;13.77;57.73;98670.50;5417097;26;20073;-45
2024/04/16 03:47:36;;;;;;;5.70;1.50;;;;;;;13.32;58.97;98661.06;5417064;26;19999;-44
2024/04/16 03:50:02;;;;;;;12.57;6.55;;;;;;;12.97;61.75;98668.66;5416921;26;20387;-45
2024/04/16 03:52:29;;;;;;;9.68;2.47;;;;;;;12.87;63.65;98666.50;5418655;26;19999;-44
2024/04/16 03:54:55;;;;;;;11.57;3.22;;;;;;;12.76;65.59;98667.22;5387984;26;20011;-44
2024/04/16 03:57:21;;;;;;;8.57;2.17;;;;;;;12.70;67.79;98674.13;5418697;26;20000;-44
2024/04/16 04:02:28;;;;;;;10.93;2.53;;;;;;;12.67;71.51;98669.28;5416948;26;20015;-44
2024/04/16 04:04:54;;;;;;;9.45;2.40;;;;;;;12.72;73.22;98672.09;5416535;26;20512;-44
2024/04/16 04:07:20;;;;;;;9.63;1.88;;;;;;;12.69;73.48;98671.72;5418151;26;20011;-45
2024/04/16 04:09:47;;;;;;;18.60;9.77;;;;;;;12.63;74.71;98675.19;5418415;26;20450;-44
2024/04/16 04:12:13;;;;;;;8.82;2.38;;;;;;;12.59;75.73;98678.25;5417979;26;20052;-45
2024/04/16 04:14:39;;;;;;;13.32;2.70;;;;;;;12.52;76.62;98681.97;5416224;26;20434;-44
2024/04/16 04:17:05;;;;;;;14.18;2.05;;;;;;;12.42;77.61;98669.28;5415733;26;20319;-44
2024/04/16 04:19:31;;;;;;;14.27;7.28;;;;;;;12.25;79.37;98676.03;5418053;26;20464;-45
2024/04/16 04:21:58;;;;;;;16.48;4.22;;;;;;;12.17;81.83;98669.19;5416377;26;20000;-44
2024/04/16 04:24:23;;;;;;;10.75;2.05;;;;;;;12.10;85.02;98663.97;5418016;26;20126;-44
2024/04/16 04:26:49;;;;;;;15.52;2.30;;;;;;;12.01;88.04;98653.91;5417971;26;20012;-44
2024/04/16 04:29:15;;;;;;;10.88;2.95;;;;;;;11.75;90.24;98653.81;5417801;26;19999;-45
2024/04/16 04:31:41;;;;;;;16.23;7.50;;;;;;;11.59;92.80;98657.69;5417699;26;20396;-44
2024/04/16 04:34:07;;;;;;;10.48;2.60;;;;;;;11.63;94.88;98665.16;5416132;26;20015;-44
2024/04/16 04:36:33;;;;;;;9.63;3.70;;;;;;;11.52;94.32;98669.25;5417459;26;20004;-44
2024/04/16 04:38:58;;;;;;;9.63;2.53;;;;;;;11.47;95.32;98676.94;5416179;26;20003;-47
2024/04/16 04:41:24;;;;;;;14.05;3.83;;;;;;;11.50;96.40;98684.41;5417829;26;20342;-46
2024/04/16 04:43:51;;;;;;;16.23;3.38;;;;;;;11.52;96.38;98688.44;5417877;26;20378;-47
2024/04/16 04:46:17;;;;;;;16.92;3.72;;;;;;;11.47;95.15;98690.06;5417675;26;19999;-46
2024/04/16 04:48:44;;;;;;;16.05;2.50;;;;;;;11.45;95.61;98698.19;5417708;26;20043;-46
2024/04/16 04:51:10;;;;;;;11.88;2.88;;;;;;;11.42;95.07;98687.25;5415686;26;20076;-47
2024/04/16 04:53:36;;;;;;;9.32;2.55;;;;;;;11.56;96.17;98694.91;5417549;26;20446;-47
2024/04/16 04:56:02;;;;;;;12.98;3.50;;;;;;;11.67;96.07;98682.13;5417494;26;20008;-47
2024/04/16 04:58:28;;;;;;;10.48;2.83;;;;;;;11.70;93.67;98682.53;5417417;26;20014;-47
2024/04/16 05:00:53;;;;;;;12.60;2.25;;;;;;;11.64;92.74;98687.81;5415631;26;20008;-47
2024/04/16 05:03:19;;;;;;;22.63;5.57;;;;;;;11.68;93.70;98695.06;5417523;26;20003;-47
2024/04/16 05:05:45;;;;;;;14.00;2.35;;;;;;;11.67;93.52;98690.00;5417383;26;20450;-47
2024/04/16 05:08:11;;;;;;;9.23;2.25;;;;;;;11.55;92.25;98688.03;5415536;26;20004;-47
2024/04/16 05:10:37;;;;;;;12.05;3.00;;;;;;;11.45;92.21;98695.56;5417196;26;20015;-47
2024/04/16 05:13:03;;;;;;;11.48;2.95;;;;;;;11.49;93.22;98703.81;5417265;26;20011;-47
2024/04/16 05:15:29;;;;;;;8.98;2.65;;;;;;;11.48;93.62;98695.13;5415554;26;20442;-47
2024/04/16 05:17:55;;;;;;;9.10;1.95;;;;;;;11.57;92.43;98687.84;5417395;26;20012;-47
2024/04/16 05:20:20;;;;;;;18.60;2.72;;;;;;;11.57;92.36;98680.75;5417429;26;20006;-47
2024/04/16 05:22:48;;;;;;;15.90;2.22;;;;;;;11.69;92.96;98680.09;5415679;26;20015;-47
2024/04/16 05:25:14;;;;;;;8.07;2.70;;;;;;;11.66;92.32;98685.78;5417226;26;20354;-47
2024/04/16 05:27:40;;;;;;;10.13;2.55;;;;;;;11.91;92.35;98686.75;5385712;26;20035;-47
2024/04/16 05:30:06;;;;;;;7.30;1.80;;;;;;;12.36;88.02;98689.34;5413993;26;20003;-47
2024/04/16 05:32:32;;;;;;;9.23;6.57;;;;;;;12.22;81.76;98689.63;5415297;26;20080;-48
2024/04/16 05:34:57;;;;;;;8.40;2.90;;;;;;;11.89;77.87;98694.03;5414934;26;20021;-47
2024/04/16 05:37:23;;;;;;;9.65;3.13;;;;;;;11.59;81.04;98681.34;5417005;26;20003;-47
2024/04/16 05:39:49;;;;;;;9.50;3.50;;;;;;;11.60;83.09;98690.03;5416971;26;20338;-48
2024/04/16 05:42:14;;;;;;;10.98;3.72;;;;;;;11.72;82.85;98691.00;5416998;26;20004;-48
2024/04/16 05:44:40;;;;;;;19.25;10.23;;;;;;;11.79;86.18;98686.56;5415256;26;20004;-48
2024/04/16 05:47:06;;;;;;;11.57;3.63;;;;;;;11.91;88.02;98680.66;5385561;26;20172;-47
2024/04/16 05:49:33;;;;;;;18.58;3.70;;;;;;;12.04;89.12;98682.44;5416909;26;20015;-48
2024/04/16 05:51:59;;;;;;;17.05;2.83;;;;;;;12.13;88.59;98684.63;5414868;26;20000;-47
2024/04/16 05:54:25;;;;;;;14.73;2.83;;;;;;;12.15;87.32;98687.84;5416801;26;20076;-47
2024/04/16 05:56:51;;;;;;;13.18;3.50;;;;;;;12.20;88.13;98697.72;5416721;26;20076;-47
2024/04/16 05:59:16;;;;;;;21.15;5.00;;;;;;;12.34;87.41;98703.72;5415052;26;20003;-47
2024/04/16 06:01:43;;;;;;;24.30;4.70;;;;;;;12.56;87.84;98698.94;5414882;26;20008;-47
2024/04/16 06:04:08;;;;;;;8.85;2.40;;;;;;;12.71;87.94;98701.25;5414846;26;20446;-47
2024/04/16 06:06:34;;;;;;;24.90;3.67;;;;;;;12.83;88.49;98701.38;5416455;26;20014;-48
2024/04/16 06:09:00;;;;;;;13.18;2.47;;;;;;;12.97;87.14;98695.00;5416425;26;20030;-47
2024/04/16 06:11:25;;;;;;;19.10;2.38;;;;;;;13.11;86.31;98691.22;5414539;26;20010;-47
2024/04/16 06:13:51;;;;;;;28.00;6.03;;;;;;;13.27;85.60;98695.13;5414594;26;20004;-48
2024/04/16 06:16:17;;;;;;;18.80;2.90;;;;;;;13.49;84.90;98707.94;5414611;26;20028;-47
2024/04/16 06:18:42;;;;;;;8.55;2.20;;;;;;;13.78;84.15;98712.50;5384912;26;20011;-48
2024/04/16 06:21:10;;;;;;;22.63;2.72;;;;;;;13.94;81.76;98710.25;5414465;26;20014;-48
2024/04/16 06:23:35;;;;;;;13.60;2.20;;;;;;;14.19;81.00;98702.25;5416265;26;20015;-46
2024/04/16 06:26:10;;;;;;;9.80;3.20;;;;;;;14.37;78.31;98704.06;5414357;26;20000;-46
2024/04/16 06:28:36;;;;;;;14.02;2.10;;;;;;;14.55;78.42;98701.34;5416273;26;20011;-46
2024/04/16 06:31:02;;;;;;;10.40;2.03;;;;;;;14.47;75.98;98696.38;5414225;26;20345;-45
2024/04/16 06:33:33;;;;;;;7.57;1.95;;;;;;;14.48;75.74;98703.25;5416093;26;20027;-45
2024/04/16 06:35:59;;;;;;;11.95;1.83;;;;;;;14.65;75.49;98716.69;5415851;26;20354;-46
2024/04/16 06:38:25;;;;;;;10.00;1.92;;;;;;;14.92;73.80;98714.41;5414741;26;20011;-45
2024/04/16 06:40:54;;;;;;;15.68;2.05;;;;;;;14.83;71.21;98707.06;5418240;26;20350;-45
2024/04/16 06:43:19;;;;;;;12.07;2.60;;;;;;;14.77;73.36;98712.22;5418143;26;20100;-46
2024/04/16 06:45:45;;;;;;;8.70;1.95;;;;;;;14.84;73.01;98711.31;5419719;26;20414;-45
2024/04/16 06:48:11;;;;;;;8.57;2.40;;;;;;;15.23;71.76;98707.22;5419794;26;20460;-45
2024/04/16 06:50:36;;;;;;;9.00;4.07;;;;;;;15.70;68.82;98716.97;5419639;26;20039;-45
2024/04/16 06:53:02;;;;;;;12.10;2.08;;;;;;;15.94;67.69;98712.47;5419525;26;20100;-45
2024/04/16 06:55:30;;;;;;;12.15;4.20;;;;;;;16.33;66.09;98710.00;5419655;26;20015;-45
2024/04/16 06:57:57;;;;;;;9.20;5.07;;;;;;;17.69;62.06;98708.97;5419563;26;20018;-46
2024/04/16 07:00:23;;;;;;;10.07;2.08;;;;;;;19.29;53.64;98704.16;5419456;26;20330;-45
2024/04/16 07:02:49;;;;;;;16.17;10.77;;;;;;;20.93;50.11;98699.38;5417610;26;20000;-46
2024/04/16 07:05:15;;;;;;;18.42;7.85;;;;;;;21.42;46.15;98689.94;5417599;26;20014;-46
2024/04/16 07:07:40;;;;;;;36.20;11.90;;;;;;;21.92;44.17;98695.41;5419315;26;20010;-46
2024/04/16 07:10:06;;;;;;;10.90;3.58;;;;;;;21.72;41.23;98683.72;5417578;26;19999;-46
2024/04/16 07:12:32;;;;;;;12.93;3.60;;;;;;;23.14;38.54;98687.66;5417579;26;20000;-45
2024/04/16 07:14:58;;;;;;;12.23;6.57;;;;;;;24.40;33.81;98682.88;5418954;26;19999;-44
2024/04/16 07:17:23;;;;;;;18.67;7.78;;;;;;;25.80;32.02;98677.50;5419424;26;20076;-43
2024/04/16 07:19:49;;;;;;;15.95;7.22;;;;;;;27.18;30.25;98676.19;5419215;26;20000;-46
2024/04/16 07:22:15;;;;;;;13.00;7.32;;;;;;;27.63;28.45;98677.97;5418970;26;20014;-46
2024/04/16 07:24:40;;;;;;;13.02;6.65;;;;;;;28.32;27.44;98669.19;5419207;26;19999;-46
2024/04/16 07:27:06;;;;;;;15.25;4.22;;;;;;;27.76;26.77;98668.16;5417297;26;20433;-47
2024/04/16 07:29:32;;;;;;;24.00;18.08;;;;;;;25.56;28.85;98674.25;5417317;26;20007;-46
2024/04/16 07:31:58;;;;;;;999.40;875.35;;;;;;;23.50;30.63;98668.50;5417092;26;20014;-46
2024/04/16 07:34:23;;;;;;;544.83;486.52;;;;;;;21.79;32.28;98674.63;5418913;26;20043;-43
2024/04/16 07:36:49;;;;;;;259.27;227.70;;;;;;;20.49;33.89;98673.19;5416616;26;20445;-43
2024/04/16 07:39:15;;;;;;;106.85;80.43;;;;;;;19.53;35.57;98680.59;5418727;26;20014;-43
2024/04/16 07:41:40;;;;;;;38.95;22.00;;;;;;;18.89;36.93;98681.53;5418474;26;20016;-43
2024/04/16 07:44:06;;;;;;;23.23;13.32;;;;;;;18.41;37.43;98679.78;5418639;26;20011;-43
2024/04/16 07:46:34;;;;;;;17.90;9.93;;;;;;;18.06;38.15;98684.47;5416702;26;20434;-45
2024/04/16 07:49:00;;;;;;;18.92;10.57;;;;;;;17.72;38.76;98689.88;5418408;26;20076;-45
2024/04/16 07:51:26;;;;;;;12.73;5.18;;;;;;;17.39;39.61;98690.78;5417492;26;20016;-45
2024/04/16 07:53:51;;;;;;;12.55;4.53;;;;;;;17.24;39.94;98685.25;5418431;26;20014;-45
2024/04/16 07:56:17;;;;;;;12.80;3.22;;;;;;;17.15;39.79;98680.38;5416563;26;20103;-46
2024/04/16 07:58:42;;;;;;;16.33;4.47;;;;;;;17.15;39.73;98675.06;5418299;26;20003;-45
2024/04/16 08:01:08;;;;;;;14.95;3.50;;;;;;;17.18;39.63;98687.03;5416566;26;20004;-45
2024/04/16 08:03:34;;;;;;;7.22;2.35;;;;;;;17.28;39.36;98683.72;5416473;26;20010;-45
2024/04/16 08:06:00;;;;;;;9.07;4.07;;;;;;;17.26;38.18;98683.16;5418237;26;20015;-45
2024/04/16 08:08:25;;;;;;;10.32;2.50;;;;;;;17.33;38.77;98681.16;5418271;26;20454;-45
2024/04/16 08:10:51;;;;;;;14.90;2.88;;;;;;;17.22;38.64;98684.72;5418040;26;20003;-45
2024/04/16 08:13:17;;;;;;;12.90;3.25;;;;;;;17.01;37.99;98676.47;5418240;26;20323;-45
2024/04/16 08:15:46;;;;;;;10.82;2.08;;;;;;;17.19;37.31;98682.56;5418031;26;20003;-45
2024/04/16 08:18:13;;;;;;;7.03;1.85;;;;;;;17.05;37.50;98682.09;5416371;26;20011;-45
2024/04/16 08:20:39;;;;;;;11.00;2.30;;;;;;;16.91;39.12;98689.56;5418112;26;20015;-45
2024/04/16 08:23:04;;;;;;;12.40;3.00;;;;;;;16.82;38.61;98685.69;5417999;26;20337;-45
2024/04/16 08:25:30;;;;;;;10.02;4.38;;;;;;;16.50;38.48;98692.31;5416186;26;20011;-45
2024/04/16 08:27:56;;;;;;;15.18;3.67;;;;;;;16.27;39.57;98690.56;5417958;26;20030;-45
2024/04/16 08:30:21;;;;;;;6.57;2.83;;;;;;;17.08;38.85;98684.22;5417921;26;19999;-45
2024/04/16 08:32:47;;;;;;;11.18;3.17;;;;;;;19.95;35.63;98671.75;5416095;26;20113;-45
2024/04/16 08:35:27;;;;;;;13.02;3.67;;;;;;;22.69;31.77;98663.63;5417663;26;20380;-46
2024/04/16 08:37:53;;;;;;;23.60;10.75;;;;;;;23.15;29.01;98659.78;5418180;26;20460;-46
2024/04/16 08:40:19;;;;;;;19.73;8.98;;;;;;;23.22;28.55;98656.75;5418124;26;20000;-46
2024/04/16 08:42:45;;;;;;;10.30;5.40;;;;;;;24.41;26.89;98663.03;5418041;26;19999;-46
2024/04/16 08:45:11;;;;;;;12.85;4.13;;;;;;;24.48;26.42;98668.03;5417904;26;20011;-46
2024/04/16 08:47:38;;;;;;;13.23;8.45;;;;;;;23.81;26.63;98658.25;5418004;26;20015;-45
2024/04/16 08:50:04;;;;;;;9.60;2.85;;;;;;;23.80;26.96;98661.22;5417940;26;20007;-46
2024/04/16 08:52:32;;;;;;;10.57;3.30;;;;;;;23.98;26.86;98660.44;5416293;26;20076;-46
2024/04/16 08:54:59;;;;;;;4.10;2.10;;;;;;;23.61;26.11;98664.63;5416025;26;20053;-45
2024/04/16 08:57:28;;;;;;;9.70;2.20;;;;;;;23.53;26.22;98657.22;5417872;26;20004;-46
2024/04/16 08:59:54;;;;;;;9.75;2.50;;;;;;;23.30;26.13;98669.53;5417826;26;20008;-43
2024/04/16 09:02:19;;;;;;;11.65;3.75;;;;;;;22.74;26.13;98655.59;5417704;26;20004;-44
2024/04/16 09:04:47;;;;;;;8.18;1.98;;;;;;;22.47;26.63;98657.94;5416080;26;19999;-43
2024/04/16 09:07:13;;;;;;;11.88;2.20;;;;;;;22.61;26.24;98652.75;5417430;26;20011;-43
2024/04/16 09:09:39;;;;;;;6.03;1.98;;;;;;;22.66;25.59;98653.53;5415712;26;20015;-43
2024/04/16 09:12:05;;;;;;;9.18;2.25;;;;;;;22.04;26.00;98661.13;5417126;26;20025;-43
2024/04/16 09:14:31;;;;;;;15.35;3.53;;;;;;;21.77;26.84;98663.41;5417281;26;20388;-43
2024/04/16 09:16:57;;;;;;;16.85;3.28;;;;;;;22.04;26.40;98650.44;5416986;26;20011;-43
2024/04/16 09:19:26;;;;;;;9.27;2.15;;;;;;;22.05;26.31;98646.69;5417220;26;20014;-43
2024/04/16 09:22:02;;;;;;;8.50;3.15;;;;;;;21.77;26.54;98650.03;5417175;26;20329;-43
2024/04/16 09:24:27;;;;;;;6.15;2.03;;;;;;;21.43;27.09;98654.19;5417434;26;20000;-43
2024/04/16 09:26:53;;;;;;;8.82;2.28;;;;;;;21.12;27.32;98648.91;5417050;26;20011;-43
2024/04/16 09:29:26;;;;;;;9.23;2.25;;;;;;;20.58;27.59;98652.13;5417214;26;20453;-43
2024/04/16 09:32:02;;;;;;;14.98;3.72;;;;;;;19.93;28.54;98657.09;5415261;26;20011;-43
2024/04/16 09:34:28;;;;;;;16.35;3.85;;;;;;;20.02;29.17;98657.38;5417029;26;20000;-43
2024/04/16 09:36:54;;;;;;;12.05;3.67;;;;;;;20.65;28.68;98670.56;5416751;26;20003;-43
2024/04/16 09:39:21;;;;;;;9.05;3.55;;;;;;;21.34;27.36;98659.25;5417021;26;20370;-42
2024/04/16 09:41:48;;;;;;;13.68;2.70;;;;;;;21.35;26.81;98660.88;5415109;26;20004;-43
2024/04/16 09:44:16;;;;;;;11.88;3.88;;;;;;;21.31;27.12;98656.34;5415126;26;20004;-43
2024/04/16 09:46:44;;;;;;;41.75;25.55;;;;;;;21.42;26.99;98657.09;5416813;26;20382;-43
2024/04/16 09:49:16;;;;;;;32.78;6.90;;;;;;;21.47;27.58;98647.25;5416956;26;20054;-43
2024/04/16 09:51:42;;;;;;;17.60;7.78;;;;;;;21.71;27.04;98644.75;5416761;26;20076;-44
2024/04/16 09:54:11;;;;;;;80.35;71.57;;;;;;;21.88;26.65;98646.25;5385501;26;20011;-43
2024/04/16 09:56:41;;;;;;;25.45;5.30;;;;;;;21.91;26.24;98657.22;5416714;26;20004;-43
2024/04/16 09:59:08;;;;;;;11.18;8.07;;;;;;;22.00;26.05;98646.72;5416746;26;20011;-43
2024/04/16 10:01:36;;;;;;;8.80;3.47;;;;;;;22.18;25.75;98649.84;5416635;26;20358;-43
2024/04/16 10:04:02;;;;;;;10.38;2.78;;;;;;;22.01;25.82;98653.66;5416610;26;20017;-43
2024/04/16 10:06:28;;;;;;;8.38;2.45;;;;;;;21.78;25.93;98649.78;5414932;26;20003;-43
2024/04/16 10:08:55;;;;;;;8.60;2.45;;;;;;;22.58;25.69;98640.75;5416669;26;19999;-43
2024/04/16 10:11:22;;;;;;;7.47;2.63;;;;;;;24.18;23.52;98637.09;5356261;26;20000;-43
2024/04/16 10:13:48;;;;;;;10.52;2.83;;;;;;;24.85;22.49;98632.28;5416589;26;19999;-43
2024/04/16 10:16:17;;;;;;;12.68;2.63;;;;;;;24.23;22.53;98629.78;5415868;26;20003;-43
2024/04/16 10:18:55;;;;;;;12.50;3.13;;;;;;;23.75;22.99;98635.25;5416302;26;20014;-43
2024/04/16 10:21:27;;;;;;;13.80;2.85;;;;;;;23.44;23.80;98634.81;5416708;26;20000;-43
2024/04/16 10:24:06;;;;;;;15.35;3.83;;;;;;;23.23;23.77;98620.88;5416383;26;20047;-43
2024/04/16 10:26:36;;;;;;;10.30;2.75;;;;;;;23.14;23.94;98623.41;5414757;26;20048;-43
2024/04/16 10:29:02;;;;;;;15.77;3.90;;;;;;;23.08;24.13;98619.97;5414505;26;20456;-44
2024/04/16 10:31:38;;;;;;;15.98;5.03;;;;;;;23.24;24.24;98622.47;5416079;26;20003;-43
2024/04/16 10:34:03;;;;;;;10.38;3.35;;;;;;;23.49;24.30;98616.03;5416107;26;20004;-43
2024/04/16 10:36:30;;;;;;;16.40;12.70;;;;;;;23.55;23.21;98606.06;5414046;26;20018;-43
2024/04/16 10:38:56;;;;;;;8.88;2.63;;;;;;;23.01;23.88;98607.97;5415979;26;20030;-43
2024/04/16 10:41:26;;;;;;;13.77;3.13;;;;;;;22.75;24.16;98602.88;5415968;26;20008;-43
2024/04/16 10:43:56;;;;;;;12.35;2.60;;;;;;;23.16;23.86;98593.63;5414223;26;20003;-43
2024/04/16 10:46:22;;;;;;;8.65;3.13;;;;;;;23.22;23.71;98592.50;5416024;26;20018;-43
2024/04/16 10:48:49;;;;;;;10.63;2.60;;;;;;;22.86;24.07;98593.66;5415695;26;20076;-43
2024/04/16 10:51:15;;;;;;;13.45;5.05;;;;;;;22.34;24.17;98590.66;5415652;26;20482;-43
2024/04/16 10:53:41;;;;;;;13.73;2.67;;;;;;;22.11;24.69;98586.81;5415759;26;20027;-43
2024/04/16 10:56:10;;;;;;;13.27;3.67;;;;;;;22.36;24.72;98581.56;5413865;26;20035;-44
2024/04/16 10:58:36;;;;;;;17.80;3.13;;;;;;;22.40;24.54;98571.91;5415572;26;20000;-43
2024/04/16 11:01:02;;;;;;;8.73;2.78;;;;;;;22.16;24.07;98582.50;5415617;26;20018;-42
2024/04/16 11:03:32;;;;;;;13.02;5.07;;;;;;;21.77;24.75;98567.22;5415844;26;20442;-43
2024/04/16 11:05:58;;;;;;;11.68;2.33;;;;;;;21.34;25.39;98578.38;5415539;26;20004;-43
2024/04/16 11:08:26;;;;;;;14.52;2.58;;;;;;;20.93;26.01;98578.53;5413890;26;20465;-43
2024/04/16 11:10:52;;;;;;;12.00;2.97;;;;;;;20.57;27.11;98583.09;5415332;26;20004;-43
2024/04/16 11:13:18;;;;;;;12.60;2.67;;;;;;;20.26;27.77;98581.22;5415492;26;20515;-43
2024/04/16 11:15:45;;;;;;;7.68;3.20;;;;;;;20.08;28.05;98587.06;5415339;26;19999;-42
2024/04/16 11:18:11;;;;;;;11.80;3.10;;;;;;;19.94;29.19;98590.25;5413577;26;19999;-43
2024/04/16 11:20:38;;;;;;;10.05;2.90;;;;;;;19.94;29.84;98592.91;5415172;26;20009;-43
2024/04/16 11:23:04;;;;;;;10.93;3.03;;;;;;;20.12;29.93;98583.63;5415347;26;20015;-43
2024/04/16 11:25:31;;;;;;;9.40;3.53;;;;;;;21.19;29.10;98583.75;5415192;26;20080;-43